createdAt,value
2017-08-07T00:00:04.754Z,17.46
2017-08-07T00:01:04.715Z,17.37
2017-08-07T00:02:04.713Z,17.48
2017-08-07T00:03:04.384Z,17.44
2017-08-07T00:04:04.398Z,17.42
2017-08-07T00:05:04.047Z,17.46
2017-08-07T00:06:04.331Z,17.4
2017-08-07T00:07:04.611Z,17.44
2017-08-07T00:08:04.291Z,17.44
2017-08-07T00:09:04.663Z,17.51
2017-08-07T00:10:04.257Z,17.45
2017-08-07T00:11:04.551Z,17.49
2017-08-07T00:12:04.283Z,17.44
2017-08-07T00:13:04.521Z,17.44
2017-08-07T00:14:04.210Z,16.82
2017-08-07T00:15:04.530Z,16.61
2017-08-07T00:16:04.469Z,16.58
2017-08-07T00:17:04.478Z,16.6
2017-08-07T00:18:04.434Z,16.81
2017-08-07T00:19:04.111Z,16.87
2017-08-07T00:20:04.401Z,16.89
2017-08-07T00:21:04.400Z,16.91
2017-08-07T00:22:04.361Z,16.93
2017-08-07T00:23:04.377Z,16.98
2017-08-07T00:24:03.741Z,16.91
2017-08-07T00:25:04.340Z,16.94
2017-08-07T00:26:03.702Z,16.93
2017-08-07T00:27:04.281Z,16.93
2017-08-07T00:28:04.274Z,16.93
2017-08-07T00:29:04.255Z,16.94
2017-08-07T00:30:04.311Z,16.96
2017-08-07T00:31:03.900Z,16.96
2017-08-07T00:32:03.970Z,16.98
2017-08-07T00:33:03.877Z,17.01
2017-08-07T00:34:03.551Z,16.94
2017-08-07T00:35:03.851Z,16.94
2017-08-07T00:36:04.172Z,16.98
2017-08-07T00:37:04.121Z,17.01
2017-08-07T00:38:04.109Z,17.01
2017-08-07T00:39:03.779Z,16.96
2017-08-07T00:40:03.759Z,16.85
2017-08-07T00:41:03.964Z,16.56
2017-08-07T00:42:03.745Z,16.35
2017-08-07T00:43:03.730Z,16.17
2017-08-07T00:44:04.001Z,16.05
2017-08-07T00:45:03.981Z,16.17
2017-08-07T00:46:03.647Z,16.23
2017-08-07T00:47:03.644Z,16.27
2017-08-07T00:48:03.921Z,16.38
2017-08-07T00:49:03.602Z,16.32
2017-08-07T00:50:03.615Z,16.35
2017-08-07T00:51:03.581Z,16.28
2017-08-07T00:52:03.560Z,16.31
2017-08-07T00:53:03.533Z,16.21
2017-08-07T00:54:03.542Z,16.26
2017-08-07T00:55:03.500Z,16.27
2017-08-07T00:56:03.486Z,16.2
2017-08-07T00:57:03.791Z,16.17
2017-08-07T00:58:03.450Z,16.23
2017-08-07T00:59:03.798Z,16.34
2017-08-07T01:00:03.432Z,16.42
2017-08-07T01:01:03.723Z,16.46
2017-08-07T01:02:03.085Z,16.43
2017-08-07T01:03:03.362Z,16.43
2017-08-07T01:04:03.051Z,16.31
2017-08-07T01:05:03.342Z,16.28
2017-08-07T01:06:03.618Z,16.16
2017-08-07T01:07:03.601Z,16.17
2017-08-07T01:08:02.969Z,16.02
2017-08-07T01:09:03.578Z,15.95
2017-08-07T01:10:03.550Z,15.9
2017-08-07T01:11:03.539Z,15.89
2017-08-07T01:12:03.223Z,15.86
2017-08-07T01:13:03.555Z,15.79
2017-08-07T01:14:03.191Z,15.75
2017-08-07T01:15:03.483Z,15.69
2017-08-07T01:16:03.460Z,15.61
2017-08-07T01:17:03.166Z,15.54
2017-08-07T01:18:03.121Z,15.49
2017-08-07T01:19:03.449Z,15.52
2017-08-07T01:20:03.071Z,15.37
2017-08-07T01:21:03.439Z,15.37
2017-08-07T01:22:03.350Z,15.28
2017-08-07T01:23:03.080Z,15.25
2017-08-07T01:24:03.323Z,15.24
2017-08-07T01:25:03.292Z,15.17
2017-08-07T01:26:02.661Z,15.04
2017-08-07T01:27:03.030Z,14.91
2017-08-07T01:28:02.631Z,15.04
2017-08-07T01:29:03.239Z,15.09
2017-08-07T01:30:02.897Z,15.09
2017-08-07T01:31:03.181Z,15.12
2017-08-07T01:32:03.191Z,15.16
2017-08-07T01:33:03.160Z,15.12
2017-08-07T01:34:02.832Z,15.16
2017-08-07T01:35:02.819Z,15.31
2017-08-07T01:36:02.800Z,15.24
2017-08-07T01:37:03.081Z,15.34
2017-08-07T01:38:03.062Z,15.17
2017-08-07T01:39:03.053Z,15.28
2017-08-07T01:40:03.032Z,15.27
2017-08-07T01:41:02.752Z,15.25
2017-08-07T01:42:02.750Z,15.32
2017-08-07T01:43:02.981Z,15.17
2017-08-07T01:44:02.659Z,15.24
2017-08-07T01:45:02.954Z,15.43
2017-08-07T01:46:02.930Z,15.43
2017-08-07T01:47:02.604Z,15.46
2017-08-07T01:48:02.891Z,15.47
2017-08-07T01:49:02.869Z,15.57
2017-08-07T01:50:02.553Z,15.53
2017-08-07T01:51:02.861Z,15.65
2017-08-07T01:52:02.521Z,15.76
2017-08-07T01:53:02.799Z,15.76
2017-08-07T01:54:02.779Z,15.6
2017-08-07T01:55:02.461Z,15.52
2017-08-07T01:56:02.461Z,15.43
2017-08-07T01:57:02.410Z,15.25
2017-08-07T01:58:02.410Z,15.13
2017-08-07T01:59:02.700Z,15.13
2017-08-07T02:00:02.678Z,15.22
2017-08-07T02:01:02.363Z,15.22
2017-08-07T02:02:02.656Z,15.16
2017-08-07T02:03:02.621Z,15.35
2017-08-07T02:04:02.326Z,15.27
2017-08-07T02:05:02.577Z,15.42
2017-08-07T02:06:02.566Z,15.5
2017-08-07T02:07:02.256Z,15.53
2017-08-07T02:08:02.576Z,15.49
2017-08-07T02:09:02.520Z,15.42
2017-08-07T02:10:02.511Z,15.32
2017-08-07T02:11:02.481Z,15.27
2017-08-07T02:12:02.166Z,15.09
2017-08-07T02:13:02.472Z,14.82
2017-08-07T02:14:02.446Z,14.75
2017-08-07T02:15:02.104Z,14.85
2017-08-07T02:16:02.401Z,14.8
2017-08-07T02:17:02.406Z,14.87
2017-08-07T02:18:02.360Z,14.85
2017-08-07T02:19:02.052Z,14.82
2017-08-07T02:20:02.338Z,14.94
2017-08-07T02:21:02.308Z,15.09
2017-08-07T02:22:01.988Z,15.16
2017-08-07T02:23:01.970Z,15.13
2017-08-07T02:24:02.262Z,15.17
2017-08-07T02:25:01.930Z,15.25
2017-08-07T02:26:01.910Z,15.24
2017-08-07T02:27:01.605Z,15.22
2017-08-07T02:28:01.879Z,15.14
2017-08-07T02:29:01.860Z,14.96
2017-08-07T02:30:02.161Z,14.87
2017-08-07T02:31:01.819Z,14.87
2017-08-07T02:32:01.800Z,14.85
2017-08-07T02:33:02.091Z,14.91
2017-08-07T02:34:01.471Z,15.12
2017-08-07T02:35:02.052Z,15.1
2017-08-07T02:36:02.042Z,15.1
2017-08-07T02:38:02.011Z,15.2
2017-08-07T02:39:01.992Z,15.14
2017-08-07T02:40:01.673Z,15.1
2017-08-07T02:41:01.642Z,15.12
2017-08-07T02:42:01.941Z,15.13
2017-08-07T02:43:01.928Z,15.14
2017-08-07T02:44:01.887Z,15.13
2017-08-07T02:45:01.886Z,15.13
2017-08-07T02:46:01.861Z,15.12
2017-08-07T02:47:01.852Z,15.22
2017-08-07T02:48:01.822Z,15.09
2017-08-07T02:49:01.825Z,15.13
2017-08-07T02:50:01.789Z,15.21
2017-08-07T02:51:01.799Z,15.13
2017-08-07T02:52:01.751Z,15.09
2017-08-07T02:53:01.419Z,15.04
2017-08-07T02:54:01.420Z,14.82
2017-08-07T02:55:01.699Z,14.85
2017-08-07T02:56:01.684Z,14.69
2017-08-07T02:57:01.657Z,14.55
2017-08-07T02:58:01.330Z,14.6
2017-08-07T02:59:01.344Z,14.63
2017-08-07T03:00:01.311Z,14.63
2017-08-07T03:01:01.589Z,14.7
2017-08-07T03:02:01.256Z,14.73
2017-08-07T03:03:01.250Z,14.7
2017-08-07T03:04:01.539Z,14.72
2017-08-07T03:05:01.220Z,14.84
2017-08-07T03:06:01.201Z,14.73
2017-08-07T03:07:01.482Z,14.87
2017-08-07T03:08:01.472Z,14.79
2017-08-07T03:09:01.140Z,14.88
2017-08-07T03:10:01.120Z,14.75
2017-08-07T03:11:01.412Z,14.82
2017-08-07T03:12:01.391Z,14.88
2017-08-07T03:13:01.371Z,14.89
2017-08-07T03:14:01.347Z,14.91
2017-08-07T03:15:01.041Z,15.06
2017-08-07T03:16:01.321Z,15.09
2017-08-07T03:17:01.301Z,15.07
2017-08-07T03:18:01.296Z,15.09
2017-08-07T03:19:00.950Z,15.16
2017-08-07T03:20:00.960Z,15.14
2017-08-07T03:21:01.234Z,15.09
2017-08-07T03:22:01.210Z,15.07
2017-08-07T03:23:01.182Z,14.98
2017-08-07T03:24:01.181Z,14.94
2017-08-07T03:25:00.845Z,14.87
2017-08-07T03:26:00.659Z,14.88
2017-08-07T03:27:01.141Z,14.87
2017-08-07T03:28:01.127Z,14.82
2017-08-07T03:29:01.087Z,14.79
2017-08-07T03:30:01.082Z,14.87
2017-08-07T03:31:00.757Z,14.85
2017-08-07T03:32:01.033Z,14.95
2017-08-07T03:33:01.012Z,15.02
2017-08-07T03:34:01.000Z,14.91
2017-08-07T03:35:00.980Z,15.09
2017-08-07T03:36:00.980Z,15.1
2017-08-07T03:37:00.338Z,15.13
2017-08-07T03:38:00.926Z,15.12
2017-08-07T03:39:00.909Z,15.1
2017-08-07T03:40:00.580Z,15.02
2017-08-07T03:41:00.870Z,15.09
2017-08-07T03:42:00.549Z,15.02
2017-08-07T03:43:00.224Z,14.85
2017-08-07T03:44:00.819Z,14.82
2017-08-07T03:45:00.484Z,14.87
2017-08-07T03:46:00.781Z,14.82
2017-08-07T03:47:00.446Z,14.87
2017-08-07T03:48:00.750Z,14.88
2017-08-07T03:49:00.727Z,14.6
2017-08-07T03:50:00.470Z,14.58
2017-08-07T03:51:00.069Z,14.62
2017-08-07T03:52:00.661Z,14.72
2017-08-07T03:53:00.055Z,14.69
2017-08-07T03:54:00.630Z,14.88
2017-08-07T03:55:00.630Z,14.7
2017-08-07T03:56:00.292Z,14.79
2017-08-07T03:57:00.585Z,14.84
2017-08-07T03:57:59.950Z,14.82
2017-08-07T03:58:59.940Z,14.82
2017-08-07T04:00:00.227Z,14.8
2017-08-07T04:00:59.910Z,14.79
2017-08-07T04:02:00.489Z,14.62
2017-08-07T04:03:00.471Z,14.66
2017-08-07T04:04:00.147Z,14.68
2017-08-07T04:05:00.132Z,14.58
2017-08-07T04:06:00.118Z,14.51
2017-08-07T04:07:00.110Z,14.58
2017-08-07T04:08:00.074Z,14.68
2017-08-07T04:09:00.057Z,14.72
2017-08-07T04:10:00.057Z,14.7
2017-08-07T04:11:00.329Z,14.77
2017-08-07T04:12:00.309Z,14.75
2017-08-07T04:12:59.990Z,14.62
2017-08-07T04:13:59.980Z,14.57
2017-08-07T04:15:00.249Z,14.58
2017-08-07T04:15:59.951Z,14.58
2017-08-07T04:16:59.921Z,14.57
2017-08-07T04:17:59.589Z,14.73
2017-08-07T04:18:59.880Z,14.69
2017-08-07T04:19:59.860Z,14.7
2017-08-07T04:20:59.540Z,14.65
2017-08-07T04:22:00.140Z,14.73
2017-08-07T04:23:00.110Z,14.72
2017-08-07T04:24:00.097Z,14.77
2017-08-07T04:24:59.769Z,14.75
2017-08-07T04:26:00.081Z,14.7
2017-08-07T04:27:00.050Z,14.77
2017-08-07T04:28:00.025Z,14.91
2017-08-07T04:28:59.999Z,14.85
2017-08-07T04:29:59.989Z,14.84
2017-08-07T04:30:59.982Z,14.82
2017-08-07T04:31:59.950Z,14.7
2017-08-07T04:32:59.928Z,14.73
2017-08-07T04:33:59.911Z,14.65
2017-08-07T04:34:59.902Z,14.87
2017-08-07T04:35:59.570Z,14.85
2017-08-07T04:36:59.559Z,14.84
2017-08-07T04:37:59.841Z,14.94
2017-08-07T04:38:59.820Z,14.92
2017-08-07T04:39:59.508Z,14.82
2017-08-07T04:40:59.789Z,14.91
2017-08-07T04:41:59.448Z,14.95
2017-08-07T04:42:59.747Z,14.96
2017-08-07T04:43:59.441Z,14.92
2017-08-07T04:44:59.118Z,14.94
2017-08-07T04:45:59.689Z,14.94
2017-08-07T04:46:59.378Z,14.96
2017-08-07T04:47:59.670Z,14.91
2017-08-07T04:48:59.641Z,14.82
2017-08-07T04:49:59.643Z,14.95
2017-08-07T04:50:59.621Z,14.92
2017-08-07T04:51:59.586Z,14.87
2017-08-07T04:52:59.569Z,14.94
2017-08-07T04:53:59.548Z,15.02
2017-08-07T04:54:59.548Z,15.07
2017-08-07T04:55:58.911Z,15.03
2017-08-07T04:56:59.189Z,15.03
2017-08-07T04:57:59.193Z,15.1
2017-08-07T04:58:58.840Z,15.09
2017-08-07T04:59:59.439Z,15.12
2017-08-07T05:00:59.121Z,15.03
2017-08-07T05:01:59.418Z,15.09
2017-08-07T05:02:59.099Z,15.12
2017-08-07T05:03:59.059Z,15.12
2017-08-07T05:04:59.051Z,15.13
2017-08-07T05:05:59.041Z,15.12
2017-08-07T05:06:59.329Z,15.03
2017-08-07T05:07:59.016Z,15.03
2017-08-07T05:08:59.391Z,14.94
2017-08-07T05:09:58.968Z,15
2017-08-07T05:10:58.949Z,14.88
2017-08-07T05:11:58.621Z,14.69
2017-08-07T05:12:59.348Z,14.58
2017-08-07T05:13:59.196Z,14.51
2017-08-07T05:14:58.596Z,14.44
2017-08-07T05:15:59.279Z,14.36
2017-08-07T05:16:59.149Z,14.44
2017-08-07T05:17:58.888Z,14.55
2017-08-07T05:18:59.100Z,14.57
2017-08-07T05:19:58.789Z,14.58
2017-08-07T05:20:59.069Z,14.38
2017-08-07T05:21:58.748Z,14.32
2017-08-07T05:22:58.727Z,14.32
2017-08-07T05:23:58.850Z,14.21
2017-08-07T05:24:58.687Z,14.38
2017-08-07T05:25:59.059Z,14.38
2017-08-07T05:26:58.962Z,14.46
2017-08-07T05:27:58.739Z,14.48
2017-08-07T05:28:58.921Z,14.36
2017-08-07T05:29:58.970Z,14.35
2017-08-07T05:30:58.898Z,14.44
2017-08-07T05:31:58.563Z,14.36
2017-08-07T05:32:58.852Z,14.4
2017-08-07T05:33:58.538Z,14.39
2017-08-07T05:34:58.819Z,14.36
2017-08-07T05:35:58.499Z,14.35
2017-08-07T05:36:58.910Z,14.44
2017-08-07T05:37:58.748Z,14.58
2017-08-07T05:38:58.444Z,14.73
2017-08-07T05:39:58.420Z,14.75
2017-08-07T05:40:58.791Z,14.85
2017-08-07T05:41:58.706Z,15.03
2017-08-07T05:42:58.063Z,15
2017-08-07T05:43:58.346Z,15.17
2017-08-07T05:44:58.413Z,15.16
2017-08-07T05:45:58.301Z,15.12
2017-08-07T05:46:58.681Z,15.34
2017-08-07T05:47:58.265Z,15.29
2017-08-07T05:48:58.270Z,15.27
2017-08-07T05:49:58.653Z,15.21
2017-08-07T05:50:58.208Z,15.25
2017-08-07T05:51:57.891Z,15.25
2017-08-07T05:52:58.183Z,15.34
2017-08-07T05:53:57.862Z,15.37
2017-08-07T05:54:58.217Z,15.43
2017-08-07T05:55:57.820Z,15.46
2017-08-07T05:56:57.824Z,15.4
2017-08-07T05:57:58.102Z,15.39
2017-08-07T05:58:58.381Z,15.27
2017-08-07T05:59:58.073Z,15.17
2017-08-07T06:00:58.417Z,15.13
2017-08-07T06:01:58.034Z,15.13
2017-08-07T06:02:58.326Z,15.07
2017-08-07T06:03:58.038Z,15.24
2017-08-07T06:04:58.071Z,15.17
2017-08-07T06:05:58.268Z,15.13
2017-08-07T06:06:57.925Z,15.17
2017-08-07T06:07:58.229Z,15.35
2017-08-07T06:08:57.894Z,15.46
2017-08-07T06:09:57.891Z,15.49
2017-08-07T06:10:58.196Z,15.5
2017-08-07T06:11:57.842Z,15.57
2017-08-07T06:12:57.851Z,15.76
2017-08-07T06:13:57.822Z,15.82
2017-08-07T06:14:57.784Z,15.86
2017-08-07T06:15:57.810Z,15.87
2017-08-07T06:16:58.062Z,16
2017-08-07T06:17:58.033Z,15.79
2017-08-07T06:18:57.713Z,15.69
2017-08-07T06:19:58.025Z,15.62
2017-08-07T06:20:57.703Z,15.79
2017-08-07T06:21:57.685Z,15.89
2017-08-07T06:22:57.663Z,16.02
2017-08-07T06:23:57.885Z,16.02
2017-08-07T06:24:57.493Z,15.97
2017-08-07T06:25:58.294Z,15.89
2017-08-07T06:26:57.915Z,15.92
2017-08-07T06:27:57.684Z,15.9
2017-08-07T06:28:57.874Z,16
2017-08-07T06:29:57.594Z,16.07
2017-08-07T06:30:57.852Z,16.16
2017-08-07T06:31:57.866Z,16.23
2017-08-07T06:32:57.489Z,16.26
2017-08-07T06:33:57.794Z,16.34
2017-08-07T06:34:57.765Z,16.58
2017-08-07T06:35:57.842Z,16.63
2017-08-07T06:36:57.726Z,16.83
2017-08-07T06:37:57.422Z,16.91
2017-08-07T06:38:57.713Z,17.03
2017-08-07T06:39:57.697Z,17.09
2017-08-07T06:40:57.398Z,17.19
2017-08-07T06:41:57.707Z,17.15
2017-08-07T06:42:57.655Z,17.03
2017-08-07T06:43:57.825Z,17.19
2017-08-07T06:44:57.596Z,17.12
2017-08-07T06:45:57.633Z,16.76
2017-08-07T06:46:57.308Z,16.78
2017-08-07T06:47:57.566Z,16.81
2017-08-07T06:48:57.586Z,16.89
2017-08-07T06:49:57.525Z,17.03
2017-08-07T06:50:57.515Z,17
2017-08-07T06:51:57.470Z,17.19
2017-08-07T06:52:57.155Z,17.21
2017-08-07T06:53:57.197Z,17.16
2017-08-07T06:54:57.464Z,17.3
2017-08-07T06:55:57.466Z,17.58
2017-08-07T06:56:57.402Z,17.52
2017-08-07T06:57:57.373Z,17.68
2017-08-07T06:58:57.072Z,17.65
2017-08-07T06:59:57.352Z,17.44
2017-08-07T07:00:57.024Z,17.48
2017-08-07T07:01:57.335Z,17.52
2017-08-07T07:02:57.367Z,17.64
2017-08-07T07:03:56.977Z,17.65
2017-08-07T07:04:57.269Z,17.58
2017-08-07T07:05:57.302Z,17.68
2017-08-07T07:06:57.065Z,17.74
2017-08-07T07:07:57.367Z,17.74
2017-08-07T07:08:57.252Z,17.83
2017-08-07T07:09:57.313Z,17.87
2017-08-07T07:10:57.172Z,17.86
2017-08-07T07:11:57.163Z,17.83
2017-08-07T07:12:57.166Z,17.98
2017-08-07T07:13:57.143Z,17.77
2017-08-07T07:14:57.110Z,17.67
2017-08-07T07:15:57.116Z,17.72
2017-08-07T07:16:57.082Z,17.89
2017-08-07T07:17:57.062Z,17.95
2017-08-07T07:18:57.054Z,18.19
2017-08-07T07:19:56.721Z,18.12
2017-08-07T07:20:57.013Z,18.3
2017-08-07T07:21:56.704Z,18.35
2017-08-07T07:22:57.004Z,18.33
2017-08-07T07:23:56.976Z,18.25
2017-08-07T07:24:56.959Z,18.29
2017-08-07T07:25:56.948Z,18.37
2017-08-07T07:26:56.945Z,18.59
2017-08-07T07:27:56.602Z,18.67
2017-08-07T07:28:56.911Z,18.47
2017-08-07T07:29:56.883Z,18.35
2017-08-07T07:30:56.293Z,18.33
2017-08-07T07:31:56.532Z,18.5
2017-08-07T07:32:56.223Z,18.58
2017-08-07T07:33:56.531Z,18.62
2017-08-07T07:34:56.497Z,18.8
2017-08-07T07:35:56.477Z,18.55
2017-08-07T07:36:56.792Z,18.56
2017-08-07T07:37:56.458Z,18.75
2017-08-07T07:38:56.744Z,19.04
2017-08-07T07:39:56.722Z,19.22
2017-08-07T07:40:56.734Z,19.08
2017-08-07T07:41:56.702Z,19.33
2017-08-07T07:42:56.371Z,19.58
2017-08-07T07:43:56.062Z,19.78
2017-08-07T07:44:56.650Z,19.76
2017-08-07T07:45:56.343Z,19.74
2017-08-07T07:46:56.335Z,19.73
2017-08-07T07:47:56.632Z,19.56
2017-08-07T07:48:56.592Z,19.62
2017-08-07T07:49:56.339Z,19.89
2017-08-07T07:50:56.583Z,20.11
2017-08-07T07:51:56.583Z,20.44
2017-08-07T07:52:56.540Z,20.43
2017-08-07T07:53:56.223Z,19.96
2017-08-07T07:54:56.525Z,20.11
2017-08-07T07:55:56.512Z,20.08
2017-08-07T07:56:56.502Z,20.1
2017-08-07T07:57:56.491Z,20.1
2017-08-07T07:58:56.461Z,20.36
2017-08-07T07:59:56.464Z,20.67
2017-08-07T08:00:56.472Z,21.19
2017-08-07T08:01:56.441Z,21.66
2017-08-07T08:02:56.431Z,22.02
2017-08-07T08:03:56.113Z,22.33
2017-08-07T08:04:56.402Z,22.62
2017-08-07T08:05:55.781Z,22.84
2017-08-07T08:06:56.393Z,22.98
2017-08-07T08:07:56.062Z,23.65
2017-08-07T08:08:56.393Z,23.99
2017-08-07T08:09:56.392Z,24.36
2017-08-07T08:10:56.056Z,25.03
2017-08-07T08:11:56.354Z,25.29
2017-08-07T08:12:56.378Z,24.75
2017-08-07T08:13:56.012Z,25.27
2017-08-07T08:14:56.023Z,25.51
2017-08-07T08:15:56.330Z,26.07
2017-08-07T08:16:56.312Z,26.78
2017-08-07T08:17:56.023Z,27.15
2017-08-07T08:18:56.322Z,27.15
2017-08-07T08:19:55.992Z,26.81
2017-08-07T08:20:56.303Z,27.19
2017-08-07T08:21:55.692Z,27.64
2017-08-07T08:22:55.984Z,27.86
2017-08-07T08:23:56.303Z,27.5
2017-08-07T08:24:56.285Z,27.88
2017-08-07T08:25:56.275Z,28.3
2017-08-07T08:26:55.653Z,28.52
2017-08-07T08:27:55.960Z,28.77
2017-08-07T08:28:56.264Z,28.53
2017-08-07T08:29:55.970Z,28.83
2017-08-07T08:30:56.255Z,29.12
2017-08-07T08:31:56.267Z,29.22
2017-08-07T08:32:56.267Z,29.2
2017-08-07T08:33:56.264Z,27.59
2017-08-07T08:34:55.933Z,26.19
2017-08-07T08:35:55.942Z,26.29
2017-08-07T08:36:55.631Z,27.01
2017-08-07T08:37:56.242Z,27.55
2017-08-07T08:38:55.930Z,27.59
2017-08-07T08:39:56.261Z,27.04
2017-08-07T08:40:56.274Z,26.69
2017-08-07T08:41:56.242Z,26.78
2017-08-07T08:42:55.637Z,26.81
2017-08-07T08:43:55.929Z,26.82
2017-08-07T08:44:55.639Z,27.33
2017-08-07T08:45:55.643Z,27.55
2017-08-07T08:46:55.933Z,28.25
2017-08-07T08:47:56.244Z,28.74
2017-08-07T08:48:56.253Z,28.9
2017-08-07T08:49:55.923Z,28.93
2017-08-07T08:50:55.943Z,29.47
2017-08-07T08:51:56.232Z,29.95
2017-08-07T08:52:55.942Z,30.28
2017-08-07T08:53:55.924Z,30.66
2017-08-07T08:54:55.925Z,30.58
2017-08-07T08:55:56.231Z,30.59
2017-08-07T08:56:55.928Z,30.33
2017-08-07T08:57:55.931Z,30.49
2017-08-07T08:58:56.229Z,30.68
2017-08-07T08:59:55.913Z,30.66
2017-08-07T09:00:55.913Z,30.26
2017-08-07T09:01:55.930Z,29.24
2017-08-07T09:02:55.915Z,28.19
2017-08-07T09:03:56.237Z,27.6
2017-08-07T09:04:56.235Z,27.28
2017-08-07T09:05:56.223Z,27.3
2017-08-07T09:06:55.929Z,27.15
2017-08-07T09:07:56.236Z,27.5
2017-08-07T09:08:55.927Z,27.86
2017-08-07T09:09:56.253Z,28.35
2017-08-07T09:10:56.288Z,28.49
2017-08-07T09:11:55.606Z,28.79
2017-08-07T09:12:55.975Z,28.74
2017-08-07T09:13:56.242Z,28.52
2017-08-07T09:14:55.913Z,28.83
2017-08-07T09:15:56.217Z,29.07
2017-08-07T09:16:55.915Z,28.45
2017-08-07T09:17:55.929Z,27.31
2017-08-07T09:18:56.225Z,27.21
2017-08-07T09:19:55.944Z,26.71
2017-08-07T09:20:56.222Z,26
2017-08-07T09:21:55.603Z,25.99
2017-08-07T09:22:56.223Z,26.3
2017-08-07T09:23:55.903Z,26.69
2017-08-07T09:24:55.913Z,26.82
2017-08-07T09:25:55.893Z,26.98
2017-08-07T09:26:55.902Z,27.36
2017-08-07T09:27:56.222Z,27.44
2017-08-07T09:28:56.207Z,27.93
2017-08-07T09:29:56.204Z,28.28
2017-08-07T09:30:55.892Z,27.43
2017-08-07T09:31:55.893Z,27.55
2017-08-07T09:32:56.192Z,28.01
2017-08-07T09:33:55.642Z,28.45
2017-08-07T09:34:56.201Z,28.8
2017-08-07T09:35:56.333Z,29.06
2017-08-07T09:36:56.193Z,29.39
2017-08-07T09:37:56.211Z,29.73
2017-08-07T09:38:55.893Z,29.05
2017-08-07T09:39:55.892Z,28.65
2017-08-07T09:40:56.213Z,28.71
2017-08-07T09:41:56.182Z,27.69
2017-08-07T09:42:55.903Z,27.28
2017-08-07T09:43:56.181Z,27.53
2017-08-07T09:44:56.192Z,27.13
2017-08-07T09:45:56.185Z,27.28
2017-08-07T09:46:56.184Z,27.55
2017-08-07T09:47:56.178Z,27.6
2017-08-07T09:48:55.861Z,27.21
2017-08-07T09:49:55.857Z,27.76
2017-08-07T09:50:55.862Z,27.59
2017-08-07T09:51:55.864Z,27.59
2017-08-07T09:52:55.557Z,28.33
2017-08-07T09:53:55.841Z,28.55
2017-08-07T09:54:55.943Z,28.03
2017-08-07T09:55:56.165Z,28.12
2017-08-07T09:56:56.163Z,28.8
2017-08-07T09:57:56.157Z,29.18
2017-08-07T09:58:56.210Z,29.59
2017-08-07T09:59:55.533Z,29.88
2017-08-07T10:00:55.932Z,29.52
2017-08-07T10:01:56.133Z,28.5
2017-08-07T10:02:55.842Z,27.52
2017-08-07T10:03:56.126Z,27.13
2017-08-07T10:04:56.142Z,27.74
2017-08-07T10:05:55.510Z,28.15
2017-08-07T10:06:55.882Z,27.82
2017-08-07T10:07:56.105Z,28.01
2017-08-07T10:08:55.843Z,28.38
2017-08-07T10:09:56.104Z,28.82
2017-08-07T10:10:56.155Z,29.06
2017-08-07T10:11:55.790Z,28.95
2017-08-07T10:12:56.100Z,28.05
2017-08-07T10:13:55.488Z,27.79
2017-08-07T10:14:56.088Z,28.13
2017-08-07T10:15:56.081Z,28.43
2017-08-07T10:16:55.475Z,28.87
2017-08-07T10:17:56.065Z,29.27
2017-08-07T10:18:55.752Z,28.38
2017-08-07T10:19:56.052Z,28.47
2017-08-07T10:20:56.056Z,28.87
2017-08-07T10:21:55.760Z,29.18
2017-08-07T10:22:56.043Z,28.7
2017-08-07T10:23:55.725Z,28.67
2017-08-07T10:24:55.742Z,28.9
2017-08-07T10:25:55.464Z,28.47
2017-08-07T10:26:55.723Z,28.52
2017-08-07T10:27:56.043Z,28.93
2017-08-07T10:28:55.711Z,29.21
2017-08-07T10:29:55.706Z,28.52
2017-08-07T10:30:55.708Z,28.61
2017-08-07T10:31:55.733Z,28.93
2017-08-07T10:32:56.002Z,29.27
2017-08-07T10:33:56.081Z,29.4
2017-08-07T10:34:55.669Z,29.57
2017-08-07T10:35:55.973Z,29.37
2017-08-07T10:36:55.983Z,29.51
2017-08-07T10:37:55.961Z,29.83
2017-08-07T10:38:55.964Z,29.89
2017-08-07T10:39:55.958Z,30.18
2017-08-07T10:40:55.650Z,30.1
2017-08-07T10:41:55.639Z,30.21
2017-08-07T10:42:55.943Z,30.07
2017-08-07T10:43:55.927Z,30.17
2017-08-07T10:44:55.398Z,29.96
2017-08-07T10:45:55.616Z,29.68
2017-08-07T10:46:55.628Z,28.95
2017-08-07T10:47:55.593Z,29.47
2017-08-07T10:48:55.604Z,29.44
2017-08-07T10:49:55.883Z,29.51
2017-08-07T10:50:55.885Z,28.76
2017-08-07T10:51:55.881Z,28.5
2017-08-07T10:52:55.583Z,28.82
2017-08-07T10:53:55.871Z,28.4
2017-08-07T10:54:55.562Z,28.43
2017-08-07T10:55:55.863Z,28.86
2017-08-07T10:56:55.552Z,29.36
2017-08-07T10:57:55.832Z,30.08
2017-08-07T10:58:55.513Z,30.33
2017-08-07T10:59:55.811Z,30.14
2017-08-07T11:00:55.822Z,29.49
2017-08-07T11:01:55.814Z,29.03
2017-08-07T11:02:55.802Z,28.93
2017-08-07T11:03:55.805Z,28.46
2017-08-07T11:04:55.794Z,28.4
2017-08-07T11:05:55.783Z,27.72
2017-08-07T11:06:55.490Z,28.21
2017-08-07T11:07:55.469Z,28.23
2017-08-07T11:08:55.765Z,28.82
2017-08-07T11:09:55.752Z,28.92
2017-08-07T11:10:55.449Z,29.06
2017-08-07T11:11:55.136Z,28.7
2017-08-07T11:12:55.521Z,29.1
2017-08-07T11:13:55.420Z,29.51
2017-08-07T11:14:55.173Z,29.42
2017-08-07T11:15:55.403Z,29.05
2017-08-07T11:16:55.471Z,29.33
2017-08-07T11:17:55.441Z,29.36
2017-08-07T11:18:55.790Z,29.68
2017-08-07T11:19:55.376Z,29.83
2017-08-07T11:20:55.687Z,28.97
2017-08-07T11:21:55.681Z,28.49
2017-08-07T11:22:55.742Z,28.65
2017-08-07T11:23:55.699Z,28.83
2017-08-07T11:24:55.654Z,27.69
2017-08-07T11:25:55.342Z,27.94
2017-08-07T11:26:55.344Z,28.35
2017-08-07T11:27:55.344Z,28.61
2017-08-07T11:28:55.314Z,28.23
2017-08-07T11:29:55.300Z,28.28
2017-08-07T11:30:55.290Z,28.35
2017-08-07T11:31:55.594Z,27.97
2017-08-07T11:32:55.614Z,28.23
2017-08-07T11:33:55.289Z,28.28
2017-08-07T11:34:55.572Z,28.27
2017-08-07T11:35:55.279Z,28.25
2017-08-07T11:36:55.277Z,28.31
2017-08-07T11:37:55.560Z,27.97
2017-08-07T11:38:55.548Z,27.71
2017-08-07T11:39:55.244Z,27.81
2017-08-07T11:40:55.232Z,27.74
2017-08-07T11:41:55.212Z,27.86
2017-08-07T11:42:55.265Z,27.78
2017-08-07T11:43:55.274Z,28.21
2017-08-07T11:44:55.195Z,28.79
2017-08-07T11:45:55.210Z,29.31
2017-08-07T11:46:55.484Z,29.73
2017-08-07T11:47:55.482Z,30.14
2017-08-07T11:48:55.241Z,30.38
2017-08-07T11:49:55.544Z,30.46
2017-08-07T11:50:55.613Z,30.52
2017-08-07T11:51:55.460Z,30.61
2017-08-07T11:52:55.456Z,30.26
2017-08-07T11:53:55.146Z,30.21
2017-08-07T11:54:55.492Z,29.66
2017-08-07T11:55:55.427Z,29.64
2017-08-07T11:56:55.123Z,29.54
2017-08-07T11:57:55.468Z,29.33
2017-08-07T11:58:55.419Z,29.54
2017-08-07T11:59:55.396Z,29.37
2017-08-07T12:00:55.404Z,29.35
2017-08-07T12:01:55.074Z,29.73
2017-08-07T12:02:55.392Z,29.39
2017-08-07T12:03:55.401Z,29.47
2017-08-07T12:04:55.367Z,29.64
2017-08-07T12:05:55.366Z,29.55
2017-08-07T12:06:55.344Z,29.39
2017-08-07T12:07:55.360Z,28.84
2017-08-07T12:08:55.352Z,28.87
2017-08-07T12:09:55.353Z,29.03
2017-08-07T12:10:55.017Z,28.93
2017-08-07T12:11:55.325Z,28.84
2017-08-07T12:12:55.307Z,28.95
2017-08-07T12:13:55.285Z,29.37
2017-08-07T12:14:55.303Z,29.15
2017-08-07T12:15:55.294Z,28.05
2017-08-07T12:16:55.276Z,27.3
2017-08-07T12:17:55.263Z,26.98
2017-08-07T12:18:55.266Z,26.82
2017-08-07T12:19:55.264Z,26.47
2017-08-07T12:20:55.243Z,26.44
2017-08-07T12:21:55.242Z,26.13
2017-08-07T12:22:55.216Z,25.92
2017-08-07T12:23:55.234Z,26.08
2017-08-07T12:24:54.913Z,25.96
2017-08-07T12:25:55.210Z,26.06
2017-08-07T12:26:55.191Z,26.34
2017-08-07T12:27:55.184Z,26.44
2017-08-07T12:28:55.184Z,26.44
2017-08-07T12:29:55.194Z,26.44
2017-08-07T12:30:54.561Z,25.92
2017-08-07T12:31:55.205Z,26.29
2017-08-07T12:32:55.155Z,26.89
2017-08-07T12:33:55.222Z,27.09
2017-08-07T12:34:55.153Z,27.74
2017-08-07T12:35:55.136Z,28.12
2017-08-07T12:36:54.795Z,28.56
2017-08-07T12:37:55.113Z,28.83
2017-08-07T12:38:55.085Z,28.5
2017-08-07T12:39:55.088Z,27.86
2017-08-07T12:40:55.176Z,27.91
2017-08-07T12:41:54.752Z,28.08
2017-08-07T12:42:55.116Z,28.55
2017-08-07T12:43:55.067Z,28.83
2017-08-07T12:44:54.729Z,29.22
2017-08-07T12:45:54.737Z,29.3
2017-08-07T12:46:54.731Z,29.1
2017-08-07T12:47:54.720Z,29.12
2017-08-07T12:48:55.015Z,28.61
2017-08-07T12:49:54.993Z,28.83
2017-08-07T12:50:54.999Z,28.98
2017-08-07T12:51:55.002Z,29.49
2017-08-07T12:52:54.686Z,29.96
2017-08-07T12:53:54.961Z,30.28
2017-08-07T12:54:54.657Z,30.59
2017-08-07T12:55:54.965Z,30.4